Time;durP1;ratioP1;P1;durP2;ratioP2;P2;SDS_P1;SDS_P2;PMS_P1;PMS_P2;Temp;Humidity;BMP_temperature;BMP_pressure;BME280_temperature;BME280_humidity;BME280_pressure;Samples;Min_cycle;Max_cycle;Signal;HPM_P1;HPM_P2
2022/11/08 00:01:52;;;;;;;2.00;1.40;;;;;;;;;;5012671;28;99521;-79
2022/11/08 00:04:19;;;;;;;3.63;1.60;;;;;;;;;;5013255;28;98531;-79
2022/11/08 00:15:01;;;;;;;2.65;1.20;;;;;;;;;;5013141;28;99480;-79
2022/11/08 00:17:28;;;;;;;3.70;1.60;;;;;;;;;;5014570;28;99830;-78
2022/11/08 00:19:55;;;;;;;2.88;1.50;;;;;;;;;;5037070;28;98461;-79
2022/11/08 00:22:22;;;;;;;2.83;1.48;;;;;;;;;;5032421;28;99715;-78
2022/11/08 00:24:50;;;;;;;5.60;1.77;;;;;;;;;;5033064;28;98485;-79
2022/11/08 00:27:18;;;;;;;2.92;1.58;;;;;;;;;;5015194;28;98946;-79
2022/11/08 00:29:45;;;;;;;4.30;1.80;;;;;;;;;;5014685;28;99561;-79
2022/11/08 00:32:12;;;;;;;4.45;1.67;;;;;;;;;;5015353;28;97858;-78
2022/11/08 00:34:39;;;;;;;3.28;1.40;;;;;;;;;;5015340;28;100380;-78
2022/11/08 00:37:05;;;;;;;3.97;1.70;;;;;;;;;;5014827;28;99631;-78
2022/11/08 00:39:32;;;;;;;4.72;1.88;;;;;;;;;;5014234;28;99290;-78
2022/11/08 00:41:58;;;;;;;2.72;1.25;;;;;;;;;;5036271;28;100700;-78
2022/11/08 00:44:25;;;;;;;3.10;1.30;;;;;;;;;;5033246;28;98496;-79
2022/11/08 00:46:51;;;;;;;2.78;1.52;;;;;;;;;;5015236;28;99106;-78
2022/11/08 00:49:18;;;;;;;2.72;1.50;;;;;;;;;;5014888;28;99961;-78
2022/11/08 00:51:44;;;;;;;2.50;1.30;;;;;;;;;;5032330;28;98524;-79
2022/11/08 00:54:15;;;;;;;2.45;1.33;;;;;;;;;;5032647;28;99124;-78
2022/11/08 00:56:41;;;;;;;;;;;;;;;;;;5032391;27;97875;-79
2022/11/08 00:59:11;;;;;;;4.03;1.90;;;;;;;;;;5015311;28;118721;-78
2022/11/08 01:01:38;;;;;;;;;;;;;;;;;;5052879;27;99280;-78
2022/11/08 01:04:04;;;;;;;2.72;1.63;;;;;;;;;;5055867;27;129868;-78
2022/11/08 01:06:31;;;;;;;2.08;1.25;;;;;;;;;;5034898;27;100610;-79
2022/11/08 01:08:57;;;;;;;4.00;1.50;;;;;;;;;;5052280;27;99970;-79
2022/11/08 01:11:24;;;;;;;2.47;1.33;;;;;;;;;;5052917;27;98520;-79
2022/11/08 01:13:51;;;;;;;2.35;1.63;;;;;;;;;;5052291;27;99887;-79
2022/11/08 01:16:22;;;;;;;2.50;1.48;;;;;;;;;;5023125;28;99511;-78
2022/11/08 01:18:49;;;;;;;3.10;1.30;;;;;;;;;;5032406;28;98442;-78
2022/11/08 01:21:16;;;;;;;3.85;1.55;;;;;;;;;;5033210;28;102413;-78
2022/11/08 01:23:44;;;;;;;2.33;1.20;;;;;;;;;;5013587;28;99497;-79
2022/11/08 01:26:12;;;;;;;2.47;1.45;;;;;;;;;;5035297;28;98882;-79
2022/11/08 01:28:38;;;;;;;3.35;1.27;;;;;;;;;;5030723;28;100807;-78
2022/11/08 01:31:06;;;;;;;1.88;1.40;;;;;;;;;;5014704;28;98547;-78
2022/11/08 01:33:32;;;;;;;4.55;1.63;;;;;;;;;;5014407;28;101237;-78
2022/11/08 01:35:59;;;;;;;2.65;1.40;;;;;;;;;;5031172;28;99868;-78
2022/11/08 01:38:25;;;;;;;2.75;1.20;;;;;;;;;;5013989;28;98554;-79
2022/11/08 01:40:52;;;;;;;2.90;1.40;;;;;;;;;;5013889;28;99166;-78
2022/11/08 01:43:24;;;;;;;3.67;1.55;;;;;;;;;;5013189;28;99484;-79
2022/11/08 01:46:09;;;;;;;2.78;1.40;;;;;;;;;;5014329;28;97803;-79
2022/11/08 01:48:38;;;;;;;2.67;1.10;;;;;;;;;;5034675;28;98499;-78
2022/11/08 01:51:05;;;;;;;1.98;1.20;;;;;;;;;;5032130;28;98520;-79
2022/11/08 01:53:31;;;;;;;2.15;1.00;;;;;;;;;;5031068;28;99190;-78
2022/11/08 01:55:58;;;;;;;2.70;1.27;;;;;;;;;;5031144;28;99455;-78
2022/11/08 01:58:27;;;;;;;2.70;1.40;;;;;;;;;;5032096;28;98489;-79
2022/11/08 02:00:53;;;;;;;2.58;1.20;;;;;;;;;;5045328;27;99180;-79
2022/11/08 02:03:19;;;;;;;2.33;1.30;;;;;;;;;;5051164;27;99618;-78
2022/11/08 02:05:46;;;;;;;2.95;1.25;;;;;;;;;;5051805;27;98597;-78
2022/11/08 02:08:27;;;;;;;2.47;1.30;;;;;;;;;;5051035;27;102071;-79
2022/11/08 02:10:54;;;;;;;3.75;1.42;;;;;;;;;;5054632;27;98901;-78
2022/11/08 02:13:22;;;;;;;3.30;1.35;;;;;;;;;;5051331;27;98435;-79
2022/11/08 02:15:49;;;;;;;3.17;1.25;;;;;;;;;;5026056;28;99340;-79
2022/11/08 02:18:16;;;;;;;1.60;1.20;;;;;;;;;;5030500;28;100087;-78
2022/11/08 02:20:49;;;;;;;3.70;1.30;;;;;;;;;;5030952;28;100481;-79
2022/11/08 02:23:28;;;;;;;2.10;1.27;;;;;;;;;;5031424;28;102501;-79
2022/11/08 02:25:55;;;;;;;4.13;1.27;;;;;;;;;;5013576;28;98762;-79
2022/11/08 02:28:21;;;;;;;3.33;1.10;;;;;;;;;;5031028;28;99440;-78
2022/11/08 02:30:47;;;;;;;2.97;1.40;;;;;;;;;;5033739;28;99593;-79
2022/11/08 02:33:15;;;;;;;4.55;1.40;;;;;;;;;;5030736;28;98418;-79
2022/11/08 02:35:43;;;;;;;2.90;1.50;;;;;;;;;;5013323;28;98826;-79
2022/11/08 02:38:09;;;;;;;1.58;1.20;;;;;;;;;;5030672;28;98527;-78
2022/11/08 02:40:49;;;;;;;2.72;1.02;;;;;;;;;;5031540;28;102093;-79
2022/11/08 02:43:15;;;;;;;3.00;1.20;;;;;;;;;;5030373;28;100147;-78
2022/11/08 02:45:41;;;;;;;2.25;1.15;;;;;;;;;;5012849;28;98921;-79
2022/11/08 02:48:07;;;;;;;1.33;1.00;;;;;;;;;;5031438;28;99557;-79
2022/11/08 02:50:34;;;;;;;1.95;1.10;;;;;;;;;;5030484;28;99476;-79
2022/11/08 02:53:00;;;;;;;1.38;1.08;;;;;;;;;;5034170;28;98525;-78
2022/11/08 02:55:27;;;;;;;1.25;0.90;;;;;;;;;;5012889;28;103027;-78
2022/11/08 02:57:53;;;;;;;1.70;1.15;;;;;;;;;;5030698;28;98602;-79
2022/11/08 03:00:20;;;;;;;2.75;1.20;;;;;;;;;;5040692;27;99055;-78
2022/11/08 03:02:50;;;;;;;2.40;1.42;;;;;;;;;;5050855;27;99498;-79
2022/11/08 03:05:16;;;;;;;1.83;1.10;;;;;;;;;;5033067;27;98517;-78
2022/11/08 03:07:43;;;;;;;1.48;1.08;;;;;;;;;;5034036;27;99248;-79
2022/11/08 03:10:10;;;;;;;2.92;1.42;;;;;;;;;;5012675;28;99822;-79
2022/11/08 03:12:36;;;;;;;2.65;1.40;;;;;;;;;;5012760;28;98567;-79
2022/11/08 03:15:04;;;;;;;2.22;1.17;;;;;;;;;;5033163;28;99139;-78
2022/11/08 03:17:30;;;;;;;2.17;1.02;;;;;;;;;;5030457;28;98627;-79
2022/11/08 03:19:56;;;;;;;2.95;1.30;;;;;;;;;;5014180;28;102214;-79
2022/11/08 03:22:23;;;;;;;1.50;1.05;;;;;;;;;;5033638;28;99478;-79
2022/11/08 03:24:49;;;;;;;2.67;1.23;;;;;;;;;;5034894;28;97776;-79
2022/11/08 03:27:17;;;;;;;1.63;1.00;;;;;;;;;;5016160;28;98450;-78
2022/11/08 03:29:47;;;;;;;3.17;1.33;;;;;;;;;;5033529;28;99828;-78
2022/11/08 03:32:14;;;;;;;2.28;1.15;;;;;;;;;;5016078;28;99372;-78
2022/11/08 03:34:40;;;;;;;2.13;1.10;;;;;;;;;;5015585;28;100037;-79
2022/11/08 03:37:07;;;;;;;2.22;1.20;;;;;;;;;;5036870;28;99493;-79
2022/11/08 03:39:33;;;;;;;1.52;1.13;;;;;;;;;;5033971;28;99020;-78
2022/11/08 03:42:02;;;;;;;2.05;1.00;;;;;;;;;;5032966;28;99978;-79
2022/11/08 03:44:28;;;;;;;3.72;1.30;;;;;;;;;;5015496;28;98826;-79
2022/11/08 03:46:54;;;;;;;2.58;0.95;;;;;;;;;;5033468;28;99100;-78
2022/11/08 03:49:21;;;;;;;1.77;1.17;;;;;;;;;;5015804;28;99012;-78
2022/11/08 03:51:47;;;;;;;1.33;1.10;;;;;;;;;;5033982;28;98512;-78
2022/11/08 03:54:13;;;;;;;2.35;1.00;;;;;;;;;;5033041;28;99054;-79
2022/11/08 03:56:40;;;;;;;2.10;1.23;;;;;;;;;;5014393;28;100268;-79
2022/11/08 03:59:06;;;;;;;1.85;1.08;;;;;;;;;;5036728;28;98611;-78
2022/11/08 04:01:32;;;;;;;4.07;1.33;;;;;;;;;;5034407;27;99953;-79
2022/11/08 04:03:59;;;;;;;1.20;0.80;;;;;;;;;;5035903;27;98596;-78
2022/11/08 04:06:25;;;;;;;2.72;1.30;;;;;;;;;;5053442;27;99257;-79
2022/11/08 04:08:51;;;;;;;2.67;1.20;;;;;;;;;;5053053;27;99521;-78
2022/11/08 04:16:47;;;;;;;1.77;0.80;;;;;;;;;;5037692;27;99921;-79
2022/11/08 04:21:58;;;;;;;2.40;1.05;;;;;;;;;;5035760;28;99219;-79
2022/11/08 04:24:24;;;;;;;2.90;0.95;;;;;;;;;;5033442;28;98880;-78
2022/11/08 04:26:51;;;;;;;2.08;1.20;;;;;;;;;;5033209;28;99456;-79
2022/11/08 04:29:17;;;;;;;2.13;1.40;;;;;;;;;;5033095;28;99593;-78
2022/11/08 04:31:43;;;;;;;1.80;1.17;;;;;;;;;;5031455;28;98436;-79
2022/11/08 04:34:09;;;;;;;2.60;1.10;;;;;;;;;;5032729;28;99099;-79
2022/11/08 04:36:36;;;;;;;1.38;0.90;;;;;;;;;;5032386;28;100123;-78
2022/11/08 04:39:02;;;;;;;1.23;0.95;;;;;;;;;;5015240;28;97894;-78
2022/11/08 04:41:28;;;;;;;1.23;1.00;;;;;;;;;;5018118;28;98725;-79
2022/11/08 04:43:56;;;;;;;1.80;0.93;;;;;;;;;;5032534;28;98892;-79
2022/11/08 04:46:24;;;;;;;2.65;1.13;;;;;;;;;;5014069;28;99370;-79
2022/11/08 04:48:51;;;;;;;2.72;1.20;;;;;;;;;;5032429;28;100815;-79
2022/11/08 04:51:22;;;;;;;3.30;1.45;;;;;;;;;;5014548;28;98584;-78
2022/11/08 04:53:49;;;;;;;1.80;0.85;;;;;;;;;;5033048;28;101214;-78
2022/11/08 04:56:18;;;;;;;1.38;0.95;;;;;;;;;;5032217;28;99530;-78
2022/11/08 04:58:45;;;;;;;3.05;1.20;;;;;;;;;;5014928;28;98605;-79
2022/11/08 05:01:13;;;;;;;2.83;1.10;;;;;;;;;;5030836;27;99531;-78
2022/11/08 05:03:39;;;;;;;1.42;1.10;;;;;;;;;;5056347;27;98925;-79
2022/11/08 05:06:08;;;;;;;2.67;1.10;;;;;;;;;;5052636;27;98510;-79
2022/11/08 05:08:35;;;;;;;1.70;1.15;;;;;;;;;;5052231;27;99502;-79
2022/11/08 05:11:02;;;;;;;1.40;0.90;;;;;;;;;;5033840;27;99207;-79
2022/11/08 05:13:29;;;;;;;1.92;1.00;;;;;;;;;;5052305;27;99853;-79
2022/11/08 05:15:59;;;;;;;2.45;0.85;;;;;;;;;;5025694;28;102403;-79
2022/11/08 05:18:26;;;;;;;3.20;1.05;;;;;;;;;;5032188;28;98552;-79
2022/11/08 05:23:38;;;;;;;1.30;1.00;;;;;;;;;;5031525;28;99833;-78
2022/11/08 05:26:05;;;;;;;2.15;1.05;;;;;;;;;;5035135;28;98489;-79
2022/11/08 05:28:31;;;;;;;2.30;1.13;;;;;;;;;;5014911;28;98828;-79
2022/11/08 05:30:57;;;;;;;1.63;1.02;;;;;;;;;;5032109;28;98485;-79
2022/11/08 05:33:24;;;;;;;2.42;1.13;;;;;;;;;;5014179;28;101364;-78
2022/11/08 05:35:51;;;;;;;2.38;0.98;;;;;;;;;;5012719;28;100300;-79
2022/11/08 05:38:17;;;;;;;1.08;0.80;;;;;;;;;;5014123;28;98572;-78
2022/11/08 05:40:45;;;;;;;0.95;0.65;;;;;;;;;;5032016;28;100725;-78
2022/11/08 05:43:11;;;;;;;2.35;1.08;;;;;;;;;;5032017;28;102292;-78
2022/11/08 05:45:38;;;;;;;2.63;1.00;;;;;;;;;;5025736;28;98493;-79
2022/11/08 05:48:04;;;;;;;2.20;0.93;;;;;;;;;;5015101;28;101622;-78
2022/11/08 05:50:32;;;;;;;2.58;0.90;;;;;;;;;;5011851;28;98475;-79
2022/11/08 05:52:58;;;;;;;1.92;0.85;;;;;;;;;;5011933;28;99139;-79
2022/11/08 05:55:25;;;;;;;2.80;1.08;;;;;;;;;;5010853;28;99535;-79
2022/11/08 05:57:51;;;;;;;1.23;0.82;;;;;;;;;;5011597;28;98512;-78
2022/11/08 06:00:18;;;;;;;2.55;0.98;;;;;;;;;;5011364;27;99262;-78
2022/11/08 06:02:44;;;;;;;2.35;1.10;;;;;;;;;;5051591;27;101759;-79
2022/11/08 06:05:11;;;;;;;1.50;0.82;;;;;;;;;;5034199;27;98756;-79
2022/11/08 06:07:37;;;;;;;1.75;1.00;;;;;;;;;;5051597;27;99449;-78
2022/11/08 06:10:04;;;;;;;3.25;1.10;;;;;;;;;;5054453;27;99564;-78
2022/11/08 06:12:30;;;;;;;1.55;0.88;;;;;;;;;;5033874;27;99420;-78
2022/11/08 06:14:56;;;;;;;1.77;0.98;;;;;;;;;;5050991;27;99465;-78
2022/11/08 06:17:23;;;;;;;1.20;0.95;;;;;;;;;;4993741;28;97831;-79
2022/11/08 06:19:55;;;;;;;0.85;0.80;;;;;;;;;;4994142;28;98495;-78
2022/11/08 06:22:21;;;;;;;1.77;0.90;;;;;;;;;;4993575;28;102495;-79
2022/11/08 06:24:47;;;;;;;1.08;0.88;;;;;;;;;;5010671;28;99263;-78
2022/11/08 06:27:14;;;;;;;1.63;0.68;;;;;;;;;;5011523;28;100100;-78
2022/11/08 06:29:41;;;;;;;1.58;0.75;;;;;;;;;;5010675;28;99539;-78
2022/11/08 06:32:08;;;;;;;3.40;0.93;;;;;;;;;;4997136;28;98484;-79
2022/11/08 06:34:35;;;;;;;2.20;1.13;;;;;;;;;;5010628;28;102355;-79
2022/11/08 06:37:01;;;;;;;2.28;1.08;;;;;;;;;;4992980;28;98713;-79
2022/11/08 06:39:28;;;;;;;0.80;0.75;;;;;;;;;;5011082;28;99461;-79
2022/11/08 06:41:54;;;;;;;3.53;1.00;;;;;;;;;;5010937;28;99482;-79
2022/11/08 06:44:21;;;;;;;1.63;0.95;;;;;;;;;;5010851;28;98617;-79
2022/11/08 06:46:47;;;;;;;1.65;0.80;;;;;;;;;;5008106;28;99144;-79
2022/11/08 06:49:13;;;;;;;2.00;0.85;;;;;;;;;;5030325;28;100130;-78
2022/11/08 06:51:39;;;;;;;6.28;1.13;;;;;;;;;;5016112;28;98535;-78
2022/11/08 06:54:06;;;;;;;0.60;0.60;;;;;;;;;;5030411;28;99426;-79
2022/11/08 06:56:34;;;;;;;1.95;1.08;;;;;;;;;;5013009;28;98652;-79
2022/11/08 06:59:00;;;;;;;1.55;0.85;;;;;;;;;;5031022;28;99311;-78
2022/11/08 07:01:27;;;;;;;2.55;1.02;;;;;;;;;;5048666;27;99412;-79
2022/11/08 07:03:53;;;;;;;1.58;0.90;;;;;;;;;;5051370;27;98451;-79
2022/11/08 07:06:19;;;;;;;0.93;0.90;;;;;;;;;;5051129;27;99176;-79
2022/11/08 07:08:46;;;;;;;2.35;1.00;;;;;;;;;;5032734;27;99443;-79
2022/11/08 07:11:12;;;;;;;1.17;0.80;;;;;;;;;;5050109;27;98636;-79
2022/11/08 07:13:38;;;;;;;1.63;1.10;;;;;;;;;;5035373;27;99586;-78
2022/11/08 07:16:04;;;;;;;2.40;0.88;;;;;;;;;;5040779;27;98525;-78
2022/11/08 07:18:31;;;;;;;1.50;1.08;;;;;;;;;;5030766;28;99229;-78
2022/11/08 07:21:01;;;;;;;2.53;0.85;;;;;;;;;;5012492;28;100588;-79
2022/11/08 07:23:27;;;;;;;2.80;0.85;;;;;;;;;;5030759;28;98553;-78
2022/11/08 07:25:54;;;;;;;3.45;1.10;;;;;;;;;;5030692;28;100545;-78
2022/11/08 07:28:20;;;;;;;1.48;0.95;;;;;;;;;;5029719;28;99455;-78
2022/11/08 07:30:47;;;;;;;1.80;1.00;;;;;;;;;;5030595;28;97747;-78
2022/11/08 07:33:14;;;;;;;2.03;1.20;;;;;;;;;;5030132;28;98717;-79
2022/11/08 07:35:43;;;;;;;1.17;0.88;;;;;;;;;;5033653;28;99836;-78
2022/11/08 07:38:09;;;;;;;2.45;1.10;;;;;;;;;;5011626;28;99269;-78
2022/11/08 07:40:35;;;;;;;1.17;0.75;;;;;;;;;;5029831;28;99802;-79
2022/11/08 07:43:02;;;;;;;1.33;1.00;;;;;;;;;;5012287;28;99009;-78
2022/11/08 07:45:38;;;;;;;1.80;0.70;;;;;;;;;;5030234;28;100517;-78
2022/11/08 07:48:05;;;;;;;1.90;1.00;;;;;;;;;;5012083;28;99583;-79
2022/11/08 07:50:37;;;;;;;1.73;0.90;;;;;;;;;;5013182;28;98594;-79
2022/11/08 07:53:04;;;;;;;3.92;0.80;;;;;;;;;;5012688;28;100165;-79
2022/11/08 07:55:30;;;;;;;1.27;0.70;;;;;;;;;;5012203;28;98830;-78
2022/11/08 07:58:00;;;;;;;1.95;1.10;;;;;;;;;;5033013;28;98452;-79
2022/11/08 08:00:27;;;;;;;1.23;0.90;;;;;;;;;;5030267;28;102461;-79
2022/11/08 08:02:59;;;;;;;1.75;1.05;;;;;;;;;;5029216;28;99244;-79
2022/11/08 08:05:27;;;;;;;1.30;0.80;;;;;;;;;;5029809;27;99859;-78
2022/11/08 08:07:57;;;;;;;1.55;0.93;;;;;;;;;;5031533;28;99890;-78
2022/11/08 08:10:23;;;;;;;0.95;0.85;;;;;;;;;;5032442;28;98536;-78
2022/11/08 08:12:50;;;;;;;1.75;0.82;;;;;;;;;;5033142;28;99166;-78
2022/11/08 08:15:16;;;;;;;1.00;0.63;;;;;;;;;;5014917;28;99488;-79
2022/11/08 08:17:42;;;;;;;1.20;0.80;;;;;;;;;;5015287;28;98498;-79
2022/11/08 08:20:09;;;;;;;0.75;0.65;;;;;;;;;;5036485;28;99439;-78
2022/11/08 08:22:35;;;;;;;1.27;0.73;;;;;;;;;;5032935;28;98524;-79
2022/11/08 08:25:02;;;;;;;1.90;0.90;;;;;;;;;;5033570;28;99182;-79
2022/11/08 08:27:28;;;;;;;2.22;0.88;;;;;;;;;;5031785;28;100302;-78
2022/11/08 08:29:55;;;;;;;1.33;0.70;;;;;;;;;;5014696;28;98622;-78
2022/11/08 08:32:21;;;;;;;1.13;0.90;;;;;;;;;;5033008;28;99115;-79
2022/11/08 08:34:47;;;;;;;1.75;0.90;;;;;;;;;;5032269;28;99487;-78
2022/11/08 08:37:14;;;;;;;1.35;0.60;;;;;;;;;;5032488;28;98492;-79
2022/11/08 08:39:40;;;;;;;1.90;0.82;;;;;;;;;;5035516;28;99110;-79
2022/11/08 08:42:06;;;;;;;1.90;0.82;;;;;;;;;;5032556;28;98831;-79
2022/11/08 08:44:33;;;;;;;2.33;1.02;;;;;;;;;;5033960;28;99488;-78
2022/11/08 08:46:59;;;;;;;1.40;0.90;;;;;;;;;;5032646;28;99741;-78
2022/11/08 08:49:25;;;;;;;2.20;1.00;;;;;;;;;;5015499;28;98520;-78
2022/11/08 08:51:51;;;;;;;1.75;0.98;;;;;;;;;;5014501;28;99609;-79
2022/11/08 08:54:18;;;;;;;2.38;1.00;;;;;;;;;;5014143;28;99516;-79
2022/11/08 08:56:44;;;;;;;1.02;0.88;;;;;;;;;;5032378;28;98957;-78
2022/11/08 08:59:11;;;;;;;1.17;0.73;;;;;;;;;;5032387;28;99774;-78
2022/11/08 09:01:58;;;;;;;2.28;0.88;;;;;;;;;;5000664;28;99144;-78
2022/11/08 09:04:24;;;;;;;2.47;1.00;;;;;;;;;;5012316;28;98464;-78
2022/11/08 09:06:51;;;;;;;1.33;0.90;;;;;;;;;;5011651;28;99504;-79
2022/11/08 09:09:17;;;;;;;1.60;0.88;;;;;;;;;;5013345;28;98198;-79
2022/11/08 09:11:43;;;;;;;1.13;0.80;;;;;;;;;;5011576;28;98709;-78
2022/11/08 09:14:09;;;;;;;0.80;0.77;;;;;;;;;;4993755;28;99532;-78
2022/11/08 09:16:36;;;;;;;2.00;0.90;;;;;;;;;;5007536;28;99312;-79
2022/11/08 09:19:02;;;;;;;1.40;0.70;;;;;;;;;;5031449;27;99904;-78
2022/11/08 09:21:28;;;;;;;2.33;0.82;;;;;;;;;;5014600;28;102404;-79
2022/11/08 09:23:55;;;;;;;3.42;0.80;;;;;;;;;;5036064;28;98524;-79
2022/11/08 09:26:21;;;;;;;2.28;0.98;;;;;;;;;;5031733;28;99879;-78
2022/11/08 09:28:47;;;;;;;2.05;1.00;;;;;;;;;;5013980;28;98533;-79
2022/11/08 09:31:14;;;;;;;2.58;1.10;;;;;;;;;;5032904;28;99095;-78
2022/11/08 09:33:41;;;;;;;1.60;1.10;;;;;;;;;;5013968;28;98947;-78
2022/11/08 09:36:10;;;;;;;1.63;0.88;;;;;;;;;;5014585;28;98514;-78
2022/11/08 09:38:36;;;;;;;3.17;1.30;;;;;;;;;;5031990;28;98440;-79
2022/11/08 09:41:18;;;;;;;0.80;0.60;;;;;;;;;;5013061;28;100532;-79
2022/11/08 09:43:51;;;;;;;0.70;0.68;;;;;;;;;;5032610;28;98447;-79
2022/11/08 09:46:25;;;;;;;2.35;1.13;;;;;;;;;;5034329;28;99148;-78
2022/11/08 09:48:53;;;;;;;2.38;1.00;;;;;;;;;;5031679;28;98520;-78
2022/11/08 09:51:21;;;;;;;1.45;0.98;;;;;;;;;;5032245;28;99819;-79
2022/11/08 09:53:50;;;;;;;1.23;0.88;;;;;;;;;;5031409;28;99532;-79
2022/11/08 09:56:20;;;;;;;1.92;1.10;;;;;;;;;;5013606;28;98566;-78
2022/11/08 09:58:50;;;;;;;2.37;1.07;;;;;;;;;;5013991;28;99099;-79
2022/11/08 10:01:17;;;;;;;1.65;0.88;;;;;;;;;;5049113;27;99612;-78
2022/11/08 10:03:49;;;;;;;2.92;0.90;;;;;;;;;;5051802;27;98519;-79
2022/11/08 10:06:33;;;;;;;0.90;0.82;;;;;;;;;;5051495;27;99192;-79
2022/11/08 10:09:09;;;;;;;1.92;1.15;;;;;;;;;;5036698;27;101791;-79
2022/11/08 10:11:54;;;;;;;1.75;1.20;;;;;;;;;;5033886;27;102074;-79
2022/11/08 10:14:20;;;;;;;1.85;1.05;;;;;;;;;;5050922;27;99517;-79
2022/11/08 10:17:05;;;;;;;1.48;0.93;;;;;;;;;;5036528;27;98729;-79
2022/11/08 10:19:43;;;;;;;1.40;0.95;;;;;;;;;;5031658;28;99531;-79
2022/11/08 10:22:16;;;;;;;1.45;0.75;;;;;;;;;;5031108;28;100521;-79
2022/11/08 10:24:43;;;;;;;2.05;1.10;;;;;;;;;;5031664;28;97919;-78
2022/11/08 10:27:14;;;;;;;1.55;0.98;;;;;;;;;;5031091;28;98412;-79
2022/11/08 10:29:42;;;;;;;1.77;0.93;;;;;;;;;;5011961;28;99491;-79
2022/11/08 10:32:19;;;;;;;0.98;0.90;;;;;;;;;;5016548;28;99608;-79
2022/11/08 10:34:48;;;;;;;1.85;1.05;;;;;;;;;;5030478;28;99519;-79
2022/11/08 10:37:15;;;;;;;1.35;0.90;;;;;;;;;;5013102;28;98520;-78
2022/11/08 10:39:47;;;;;;;1.00;0.82;;;;;;;;;;5031093;28;99168;-78
2022/11/08 10:42:24;;;;;;;0.85;0.85;;;;;;;;;;5030538;28;99510;-79
2022/11/08 10:44:50;;;;;;;0.77;0.77;;;;;;;;;;5030817;28;98544;-79
2022/11/08 10:47:20;;;;;;;1.58;1.00;;;;;;;;;;5030649;28;99498;-79
2022/11/08 10:49:46;;;;;;;1.83;1.10;;;;;;;;;;5013674;28;102506;-79
2022/11/08 10:52:29;;;;;;;1.88;1.20;;;;;;;;;;5016393;28;98515;-78
2022/11/08 10:54:56;;;;;;;1.20;1.10;;;;;;;;;;5030208;28;99599;-78
2022/11/08 10:57:28;;;;;;;2.45;0.90;;;;;;;;;;5030191;28;99268;-79
2022/11/08 10:59:55;;;;;;;1.95;1.10;;;;;;;;;;5018132;27;99883;-79
2022/11/08 11:02:23;;;;;;;3.88;1.42;;;;;;;;;;5050879;27;99622;-79
2022/11/08 11:04:50;;;;;;;1.02;0.90;;;;;;;;;;5032484;27;98564;-79
2022/11/08 11:07:28;;;;;;;2.40;1.17;;;;;;;;;;5032675;27;99548;-79
2022/11/08 11:09:54;;;;;;;1.02;0.85;;;;;;;;;;5050381;27;99627;-79
2022/11/08 11:12:20;;;;;;;1.38;0.90;;;;;;;;;;5051119;27;98523;-79
2022/11/08 11:14:59;;;;;;;1.15;0.90;;;;;;;;;;5054104;27;99111;-78
2022/11/08 11:17:28;;;;;;;2.65;1.15;;;;;;;;;;4992526;28;98835;-79
2022/11/08 11:20:00;;;;;;;2.08;1.20;;;;;;;;;;5010191;28;99426;-79
2022/11/08 11:22:31;;;;;;;1.83;0.90;;;;;;;;;;5009649;28;100250;-79
2022/11/08 11:25:04;;;;;;;2.10;1.15;;;;;;;;;;5010587;28;98504;-79
2022/11/08 11:27:32;;;;;;;1.33;1.13;;;;;;;;;;4992487;28;99156;-79
2022/11/08 11:30:17;;;;;;;1.95;1.10;;;;;;;;;;5009885;28;99665;-79
2022/11/08 11:32:53;;;;;;;1.92;1.08;;;;;;;;;;5010437;28;98575;-79
2022/11/08 11:35:20;;;;;;;1.15;0.90;;;;;;;;;;5010803;28;99463;-78
2022/11/08 11:37:47;;;;;;;2.17;1.33;;;;;;;;;;4995371;28;99796;-79
2022/11/08 11:40:23;;;;;;;1.85;1.00;;;;;;;;;;5010904;28;101547;-79
2022/11/08 11:42:55;;;;;;;1.38;1.00;;;;;;;;;;5011869;28;99630;-78
2022/11/08 11:45:26;;;;;;;1.45;0.93;;;;;;;;;;4999224;28;98761;-78
2022/11/08 11:47:56;;;;;;;2.45;1.05;;;;;;;;;;5033645;28;100366;-78
2022/11/08 11:50:26;;;;;;;1.58;0.98;;;;;;;;;;5015295;28;99506;-78
2022/11/08 11:52:54;;;;;;;2.35;1.00;;;;;;;;;;5015635;28;98477;-79
2022/11/08 11:55:25;;;;;;;1.10;1.00;;;;;;;;;;5033684;28;102464;-78
2022/11/08 11:57:51;;;;;;;1.92;1.00;;;;;;;;;;5033105;28;99904;-79
2022/11/08 12:00:17;;;;;;;1.25;0.90;;;;;;;;;;5045483;27;98518;-79
2022/11/08 12:03:02;;;;;;;1.10;0.88;;;;;;;;;;5053954;27;99424;-79
2022/11/08 12:05:31;;;;;;;2.95;1.23;;;;;;;;;;5054046;27;97797;-79
2022/11/08 12:08:17;;;;;;;2.55;1.08;;;;;;;;;;5035550;27;98600;-79
2022/11/08 12:10:53;;;;;;;2.80;1.20;;;;;;;;;;5052243;27;99710;-79
2022/11/08 12:13:31;;;;;;;1.20;1.10;;;;;;;;;;5053254;27;99265;-79
2022/11/08 12:16:09;;;;;;;1.13;1.02;;;;;;;;;;5044993;27;98834;-79
2022/11/08 12:18:45;;;;;;;1.08;0.98;;;;;;;;;;5032476;28;99479;-79
2022/11/08 12:21:13;;;;;;;1.83;0.93;;;;;;;;;;5015602;28;98534;-79
2022/11/08 12:24:03;;;;;;;1.30;1.00;;;;;;;;;;5036671;28;99205;-79
2022/11/08 12:26:32;;;;;;;1.13;0.93;;;;;;;;;;5032654;28;98524;-78
2022/11/08 12:29:16;;;;;;;1.07;0.90;;;;;;;;;;5033004;28;99184;-79
2022/11/08 12:31:46;;;;;;;3.17;1.13;;;;;;;;;;5015677;28;99714;-79
2022/11/08 12:34:51;;;;;;;2.15;1.00;;;;;;;;;;5033166;28;98548;-78
2022/11/08 12:37:17;;;;;;;1.60;1.00;;;;;;;;;;4915475;28;99556;-79
2022/11/08 12:39:49;;;;;;;1.55;0.75;;;;;;;;;;4914899;28;100271;-79
2022/11/08 12:42:16;;;;;;;1.30;0.80;;;;;;;;;;4931980;28;98650;-79
2022/11/08 12:44:44;;;;;;;1.52;1.08;;;;;;;;;;4915664;28;99148;-79
2022/11/08 12:47:14;;;;;;;1.05;0.95;;;;;;;;;;4934517;28;99810;-79
2022/11/08 12:49:47;;;;;;;1.10;1.00;;;;;;;;;;4930973;28;99360;-79
2022/11/08 12:52:28;;;;;;;2.65;1.08;;;;;;;;;;4930322;28;99836;-79
2022/11/08 12:54:59;;;;;;;0.98;0.98;;;;;;;;;;4931325;28;98547;-79
2022/11/08 12:57:27;;;;;;;1.20;0.90;;;;;;;;;;4915478;28;99167;-79
2022/11/08 13:00:00;;;;;;;0.88;0.85;;;;;;;;;;4928822;28;99885;-79
2022/11/08 13:02:28;;;;;;;2.10;0.80;;;;;;;;;;4931282;28;98624;-79
2022/11/08 13:05:01;;;;;;;1.00;0.90;;;;;;;;;;4931151;28;100239;-79
2022/11/08 13:07:49;;;;;;;1.33;1.05;;;;;;;;;;4955594;28;99922;-79
2022/11/08 13:10:30;;;;;;;2.80;1.25;;;;;;;;;;5031789;28;99152;-78
2022/11/08 13:13:02;;;;;;;1.83;1.10;;;;;;;;;;5032039;28;99913;-79
2022/11/08 13:15:29;;;;;;;1.73;0.90;;;;;;;;;;5032173;28;98512;-79
2022/11/08 13:18:10;;;;;;;2.05;1.02;;;;;;;;;;5014849;28;99188;-79
2022/11/08 13:20:36;;;;;;;1.17;1.08;;;;;;;;;;5031808;28;99508;-79
2022/11/08 13:23:05;;;;;;;2.90;1.00;;;;;;;;;;5032578;28;98122;-79
2022/11/08 13:25:33;;;;;;;2.13;1.00;;;;;;;;;;5031964;28;98729;-78
2022/11/08 13:27:59;;;;;;;1.80;0.93;;;;;;;;;;5014135;28;100653;-78
2022/11/08 13:30:30;;;;;;;1.40;1.30;;;;;;;;;;5034909;28;99297;-79
2022/11/08 13:32:56;;;;;;;0.75;0.75;;;;;;;;;;5031689;28;99753;-79
2022/11/08 13:35:25;;;;;;;1.02;0.93;;;;;;;;;;5013668;28;98569;-78
2022/11/08 13:38:04;;;;;;;1.27;1.05;;;;;;;;;;5014728;28;99514;-79
2022/11/08 13:40:30;;;;;;;1.30;1.00;;;;;;;;;;5031280;28;99495;-78
2022/11/08 13:43:14;;;;;;;1.20;1.10;;;;;;;;;;5032430;28;98516;-79
2022/11/08 13:45:41;;;;;;;1.27;1.00;;;;;;;;;;5031668;28;99087;-79
2022/11/08 13:48:23;;;;;;;1.15;1.00;;;;;;;;;;5031934;28;98737;-79
2022/11/08 13:50:51;;;;;;;4.25;1.10;;;;;;;;;;5014313;28;98580;-78
2022/11/08 13:53:18;;;;;;;3.50;1.10;;;;;;;;;;5034421;28;99125;-79
2022/11/08 13:55:45;;;;;;;1.85;0.77;;;;;;;;;;5013071;28;99402;-78
2022/11/08 13:58:30;;;;;;;1.55;0.90;;;;;;;;;;5013577;28;100355;-78
2022/11/08 14:00:57;;;;;;;1.10;0.90;;;;;;;;;;5045611;27;99537;-79
2022/11/08 14:03:32;;;;;;;1.35;1.08;;;;;;;;;;5051752;27;98555;-79
2022/11/08 14:06:01;;;;;;;5.00;1.10;;;;;;;;;;5033898;27;99421;-78
2022/11/08 14:08:29;;;;;;;1.48;1.20;;;;;;;;;;5051544;27;99490;-78
2022/11/08 14:11:07;;;;;;;2.63;1.27;;;;;;;;;;5029529;28;99425;-79
2022/11/08 14:13:41;;;;;;;1.35;1.15;;;;;;;;;;5032270;27;99408;-79
2022/11/08 14:16:19;;;;;;;1.98;0.95;;;;;;;;;;5024536;27;99778;-79
2022/11/08 14:18:46;;;;;;;1.60;0.90;;;;;;;;;;5011218;28;99177;-78
2022/11/08 14:21:18;;;;;;;3.20;1.08;;;;;;;;;;5009587;28;101463;-79
2022/11/08 14:23:47;;;;;;;2.35;1.00;;;;;;;;;;5026979;28;98452;-78
2022/11/08 14:26:16;;;;;;;1.50;1.00;;;;;;;;;;5011134;28;99175;-79
2022/11/08 14:28:43;;;;;;;1.55;0.80;;;;;;;;;;5011261;28;99867;-79
2022/11/08 14:31:26;;;;;;;3.60;1.05;;;;;;;;;;5011086;28;98513;-79
2022/11/08 14:33:53;;;;;;;4.38;1.10;;;;;;;;;;5011119;28;99216;-79
2022/11/08 14:36:20;;;;;;;1.23;1.13;;;;;;;;;;5026596;28;102632;-78
2022/11/08 14:39:04;;;;;;;1.25;0.93;;;;;;;;;;5013962;28;98649;-78
2022/11/08 14:41:31;;;;;;;1.08;1.02;;;;;;;;;;5011073;28;99420;-79
2022/11/08 14:43:58;;;;;;;3.10;1.13;;;;;;;;;;5011003;28;98510;-79
2022/11/08 14:46:35;;;;;;;1.17;1.08;;;;;;;;;;5009484;28;100787;-78
2022/11/08 14:49:08;;;;;;;3.00;1.00;;;;;;;;;;5009208;28;99569;-79
2022/11/08 14:51:35;;;;;;;2.40;1.27;;;;;;;;;;5010867;28;98505;-78
2022/11/08 14:54:01;;;;;;;1.20;0.90;;;;;;;;;;5010352;28;99078;-79
2022/11/08 14:56:35;;;;;;;1.20;1.02;;;;;;;;;;5008982;28;99680;-78
2022/11/08 14:59:03;;;;;;;1.17;0.93;;;;;;;;;;5010920;28;98488;-79
2022/11/08 15:01:30;;;;;;;2.55;1.00;;;;;;;;;;5030793;28;99135;-79
2022/11/08 15:04:01;;;;;;;1.48;0.93;;;;;;;;;;5030128;28;97916;-79
2022/11/08 15:06:35;;;;;;;1.70;1.10;;;;;;;;;;5023785;28;98493;-79
2022/11/08 15:09:02;;;;;;;1.30;1.00;;;;;;;;;;5025549;28;99709;-79
2022/11/08 15:11:33;;;;;;;2.15;1.13;;;;;;;;;;5019911;28;99289;-79